Terminal Aerodrome Forecast
Issued by NWS

Current Version | Previous Version | Text Only | Print | Product List | Glossary On
Versions: 1 2 3 4 5 6 7 8 9 10 11 12 13 14 15 16
000
FTUS42 KTAE 181700 RRA
TAFDHN
TAF
KDHN 181752Z 1818/1918 04010G20KT 3SM -RA OVC007
     FM190200 36008KT P6SM OVC007
     FM191300 36010KT P6SM OVC020=

USA.gov is the U.S. government's official web portal to all federal, state and local government web resources and services.